Time;durP1;ratioP1;P1;durP2;ratioP2;P2;SDS_P1;SDS_P2;PMS_P1;PMS_P2;Temp;Humidity;BMP_temperature;BMP_pressure;BME280_temperature;BME280_humidity;BME280_pressure;Samples;Min_cycle;Max_cycle;Signal;HPM_P1;HPM_P2
2021/12/10 00:00:45;;;;;;;;;;;;;;;15.06;32.14;93492.81;5046114;28;19924;-56
2021/12/10 00:03:15;;;;;;;;;;;;;;;15.04;32.44;93495.03;5036598;28;19917;-56
2021/12/10 00:05:51;;;;;;;;;;;;;;;14.99;32.46;93493.41;5036489;28;19913;-55
2021/12/10 00:08:18;;;;;;;;;;;;;;;16.06;31.10;93500.69;5035302;28;19924;-56
2021/12/10 00:10:47;;;;;;;;;;;;;;;16.35;30.13;93494.94;5053218;28;19920;-54
2021/12/10 00:13:14;;;;;;;;;;;;;;;15.95;30.87;93490.66;5044229;28;19916;-54
2021/12/10 00:15:42;;;;;;;;;;;;;;;16.92;29.85;93483.03;5054876;28;19912;-56
2021/12/10 00:18:09;;;;;;;;;;;;;;;18.31;27.72;93475.66;5037170;28;20293;-59
2021/12/10 00:20:37;;;;;;;;;;;;;;;16.23;30.39;93481.88;5050817;28;19917;-55
2021/12/10 00:23:09;;;;;;;;;;;;;;;17.45;28.93;93491.97;5043957;28;19921;-57
2021/12/10 00:25:39;;;;;;;;;;;;;;;20.09;24.59;93477.03;5039864;28;19924;-57
2021/12/10 00:28:14;;;;;;;;;;;;;;;18.08;27.38;93464.34;5036344;28;20291;-58
2021/12/10 00:33:53;;;;;;;;;;;;;;;16.85;29.56;93473.06;5025043;28;20300;-58
2021/12/10 00:36:20;;;;;;;;;;;;;;;16.24;30.59;93483.41;5039846;28;19912;-55
2021/12/10 00:38:47;;;;;;;;;;;;;;;17.74;28.99;93485.34;5036184;28;20311;-58
2021/12/10 00:41:14;;;;;;;;;;;;;;;16.91;29.13;93470.91;5024976;28;19917;-56
2021/12/10 00:43:41;;;;;;;;;;;;;;;17.23;28.87;93469.69;5035067;28;19920;-56
2021/12/10 00:46:08;;;;;;;;;;;;;;;20.15;25.31;93467.59;5047059;28;19917;-58
2021/12/10 00:48:35;;;;;;;;;;;;;;;21.89;22.60;93473.75;5044284;28;19913;-58
2021/12/10 00:51:03;;;;;;;;;;;;;;;20.01;24.91;93468.22;5044943;28;19917;-56
2021/12/10 00:53:30;;;;;;;;;;;;;;;19.37;25.86;93454.34;5035950;28;19913;-55
2021/12/10 00:55:56;;;;;;;;;;;;;;;19.69;25.82;93455.44;5039907;28;19920;-58
2021/12/10 00:58:24;;;;;;;;;;;;;;;20.11;25.51;93456.19;5051783;28;19924;-57
2021/12/10 01:00:52;;;;;;;;;;;;;;;19.86;25.60;93453.34;5037985;28;19913;-57
2021/12/10 01:03:22;;;;;;;;;;;;;;;17.33;28.99;93447.22;5035361;28;19916;-55
2021/12/10 01:05:51;;;;;;;;;;;;;;;16.80;29.96;93460.16;5044222;28;19913;-56
2021/12/10 01:08:18;;;;;;;;;;;;;;;16.65;30.20;93459.06;5046165;28;19917;-55
2021/12/10 01:10:49;;;;;;;;;;;;;;;15.99;31.33;93462.50;5041230;28;19917;-55
2021/12/10 01:13:18;;;;;;;;;;;;;;;15.92;31.49;93459.72;5035660;28;19913;-56
2021/12/10 01:23:59;;;;;;;;;;;;;;;15.91;31.56;93455.53;5054932;28;19912;-55
2021/12/10 01:26:54;;;;;;;;;;;;;;;16.21;31.17;93455.09;5054698;28;19916;-57
2021/12/10 01:29:23;;;;;;;;;;;;;;;16.81;30.19;93459.03;5054740;28;20303;-56
2021/12/10 01:31:51;;;;;;;;;;;;;;;16.19;31.46;93436.22;5037977;28;19920;-56
2021/12/10 01:34:18;;;;;;;;;;;;;;;15.67;32.49;93422.22;5034816;28;19917;-60
2021/12/10 01:36:45;;;;;;;;;;;;;;;16.37;31.98;93434.72;5054935;28;19995;-55
2021/12/10 01:39:13;;;;;;;;;;;;;;;16.27;31.81;93424.69;5054835;28;20350;-57
2021/12/10 01:41:42;;;;;;;;;;;;;;;16.17;31.71;93412.06;5054894;28;19921;-58
2021/12/10 01:44:15;;;;;;;;;;;;;;;15.25;33.23;93411.34;5048545;28;20603;-57
2021/12/10 01:46:43;;;;;;;;;;;;;;;15.49;32.77;93414.94;5054534;28;20312;-57
2021/12/10 01:49:12;;;;;;;;;;;;;;;16.08;31.95;93425.41;5053895;28;19920;-56
2021/12/10 01:51:40;;;;;;;;;;;;;;;16.19;31.51;93417.75;5054507;28;19913;-57
2021/12/10 01:54:09;;;;;;;;;;;;;;;15.93;32.86;93418.31;5054753;28;19917;-60
2021/12/10 01:56:38;;;;;;;;;;;;;;;16.26;32.13;93412.63;5054560;28;19920;-56
2021/12/10 01:59:06;;;;;;;;;;;;;;;16.44;31.38;93408.50;5053375;28;19946;-56
2021/12/10 02:01:41;;;;;;;;;;;;;;;16.83;31.05;93416.47;5040910;28;19917;-55
2021/12/10 02:04:14;;;;;;;;;;;;;;;16.82;31.11;93409.66;5034720;28;19920;-58
2021/12/10 02:06:40;;;;;;;;;;;;;;;17.05;30.46;93405.19;5053167;28;19923;-57
2021/12/10 02:09:08;;;;;;;;;;;;;;;17.65;30.14;93408.13;5048290;28;19913;-57
2021/12/10 02:11:35;;;;;;;;;;;;;;;17.03;30.72;93415.34;5034736;28;19923;-57
2021/12/10 02:14:02;;;;;;;;;;;;;;;17.35;30.41;93409.88;5034188;28;19917;-58
2021/12/10 02:16:29;;;;;;;;;;;;;;;16.90;30.87;93390.94;5037881;28;19913;-59
2021/12/10 02:18:56;;;;;;;;;;;;;;;16.43;30.97;93383.22;5035096;28;19924;-55
2021/12/10 02:21:24;;;;;;;;;;;;;;;16.02;32.43;93374.06;5038626;28;19917;-57
2021/12/10 02:23:56;;;;;;;;;;;;;;;16.31;31.91;93370.16;5034861;28;19923;-59
2021/12/10 02:26:28;;;;;;;;;;;;;;;17.18;30.25;93371.50;5045341;28;19924;-58
2021/12/10 02:28:56;;;;;;;;;;;;;;;18.13;29.13;93363.56;5037180;28;19917;-58
2021/12/10 02:31:23;;;;;;;;;;;;;;;17.34;30.26;93366.09;5034876;28;19913;-57
2021/12/10 02:33:50;;;;;;;;;;;;;;;16.96;30.62;93375.63;5038587;28;19916;-61
2021/12/10 02:36:17;;;;;;;;;;;;;;;17.05;29.72;93378.78;5040039;28;19917;-55
2021/12/10 02:38:47;;;;;;;;;;;;;;;17.07;30.94;93373.16;5050800;28;19916;-60
2021/12/10 02:41:15;;;;;;;;;;;;;;;16.85;31.30;93372.75;5040769;28;19924;-60
2021/12/10 02:43:42;;;;;;;;;;;;;;;17.30;31.36;93391.69;5058357;28;19913;-60
2021/12/10 02:46:09;;;;;;;;;;;;;;;17.20;30.21;93408.88;5057718;28;20227;-61
2021/12/10 02:48:36;;;;;;;;;;;;;;;15.77;32.17;93404.34;5057001;28;20370;-61
2021/12/10 02:51:04;;;;;;;;;;;;;;;16.14;32.27;93402.19;5054071;28;19984;-60
2021/12/10 02:53:35;;;;;;;;;;;;;;;16.27;32.43;93400.97;5058107;28;19920;-61
2021/12/10 02:56:02;;;;;;;;;;;;;;;15.85;33.10;93391.00;5057634;28;20228;-56
2021/12/10 02:58:30;;;;;;;;;;;;;;;16.57;32.00;93409.88;5057171;28;20223;-54
2021/12/10 03:01:08;;;;;;;;;;;;;;;17.09;31.06;93411.31;5057994;28;19920;-55
2021/12/10 03:03:38;;;;;;;;;;;;;;;17.49;30.88;93410.91;5039302;28;19948;-55
2021/12/10 03:06:10;;;;;;;;;;;;;;;16.35;32.48;93407.91;5049285;28;19920;-56
2021/12/10 03:08:41;;;;;;;;;;;;;;;15.92;32.57;93396.44;5056202;28;19916;-55
2021/12/10 03:11:08;;;;;;;;;;;;;;;16.51;31.93;93397.31;5057449;28;19913;-57
2021/12/10 03:13:35;;;;;;;;;;;;;;;16.10;32.56;93390.78;5057139;28;19924;-55
2021/12/10 03:16:02;;;;;;;;;;;;;;;16.99;31.20;93398.69;5057513;28;19917;-58
2021/12/10 03:18:29;;;;;;;;;;;;;;;17.38;31.80;93393.31;5053280;28;19917;-56
2021/12/10 03:20:56;;;;;;;;;;;;;;;18.98;30.17;93399.03;5055762;28;19920;-55
2021/12/10 03:23:23;;;;;;;;;;;;;;;18.72;30.29;93385.88;5037744;28;20248;-55
2021/12/10 03:25:49;;;;;;;;;;;;;;;17.05;31.31;93383.31;5037345;28;19925;-55
2021/12/10 03:28:17;;;;;;;;;;;;;;;17.53;30.76;93389.81;5043815;28;20299;-55
2021/12/10 03:30:45;;;;;;;;;;;;;;;18.91;30.29;93388.38;5056116;28;20227;-56
2021/12/10 03:33:13;;;;;;;;;;;;;;;18.95;29.45;93391.06;5038155;28;19936;-55
2021/12/10 03:35:42;;;;;;;;;;;;;;;19.44;29.21;93379.44;5037323;28;19920;-56
2021/12/10 03:38:11;;;;;;;;;;;;;;;17.64;30.67;93385.44;5042668;28;19912;-55
2021/12/10 03:40:38;;;;;;;;;;;;;;;17.63;30.88;93380.53;5053987;28;19920;-56
2021/12/10 03:43:05;;;;;;;;;;;;;;;17.07;31.87;93384.50;5047063;28;19924;-57
2021/12/10 03:45:36;;;;;;;;;;;;;;;17.35;30.76;93399.31;5037019;28;19917;-56
2021/12/10 03:48:07;;;;;;;;;;;;;;;18.04;31.28;93398.19;5041535;28;19916;-55
2021/12/10 03:50:34;;;;;;;;;;;;;;;18.08;30.37;93411.47;5055905;28;20299;-56
2021/12/10 03:53:01;;;;;;;;;;;;;;;17.64;31.92;93409.22;5057148;28;20247;-56
2021/12/10 03:55:28;;;;;;;;;;;;;;;17.36;32.28;93403.47;5056015;28;19960;-56
2021/12/10 03:57:55;;;;;;;;;;;;;;;16.29;33.05;93402.16;5043643;28;19928;-55
2021/12/10 04:00:23;;;;;;;;;;;;;;;18.39;31.21;93399.81;5040579;28;19913;-55
2021/12/10 04:02:50;;;;;;;;;;;;;;;20.26;29.38;93400.19;5036924;28;19944;-54
2021/12/10 04:05:17;;;;;;;;;;;;;;;18.06;31.42;93411.06;5036308;28;19920;-54
2021/12/10 04:07:44;;;;;;;;;;;;;;;18.01;30.95;93393.63;5038117;28;19920;-55
2021/12/10 04:10:11;;;;;;;;;;;;;;;17.99;32.23;93390.56;5055596;28;19912;-57
2021/12/10 04:12:38;;;;;;;;;;;;;;;18.18;30.72;93387.81;5056682;28;19919;-55
2021/12/10 04:15:05;;;;;;;;;;;;;;;17.46;32.04;93394.97;5056423;28;19917;-55
2021/12/10 04:17:33;;;;;;;;;;;;;;;17.35;32.77;93404.59;5038345;28;19924;-56
2021/12/10 04:20:00;;;;;;;;;;;;;;;17.24;33.01;93413.09;5055309;28;20327;-54
2021/12/10 04:22:32;;;;;;;;;;;;;;;16.71;32.32;93414.72;5053068;28;20239;-56
2021/12/10 04:24:59;;;;;;;;;;;;;;;16.63;33.88;93423.56;5018620;28;20529;-55
2021/12/10 04:27:26;;;;;;;;;;;;;;;17.19;32.81;93413.41;5036031;28;19924;-54
2021/12/10 04:29:56;;;;;;;;;;;;;;;17.76;32.34;93414.38;5054074;28;19916;-55
2021/12/10 04:32:24;;;;;;;;;;;;;;;17.88;31.86;93421.34;5048957;28;19917;-55
2021/12/10 04:34:51;;;;;;;;;;;;;;;17.05;33.58;93415.00;5035167;28;19912;-54
2021/12/10 04:37:18;;;;;;;;;;;;;;;18.19;31.50;93420.31;5035675;28;19917;-57
2021/12/10 04:39:45;;;;;;;;;;;;;;;17.98;31.24;93420.78;5052484;28;20236;-55
2021/12/10 04:42:13;;;;;;;;;;;;;;;18.65;32.30;93422.84;5054281;28;19923;-56
2021/12/10 04:44:40;;;;;;;;;;;;;;;17.75;33.02;93422.66;5036000;28;19921;-56
2021/12/10 04:47:06;;;;;;;;;;;;;;;17.81;33.04;93419.38;5035726;28;19913;-55
2021/12/10 04:49:33;;;;;;;;;;;;;;;18.85;31.45;93424.25;5050487;28;19955;-56
2021/12/10 04:52:00;;;;;;;;;;;;;;;18.72;31.36;93420.28;5054181;28;19916;-56
2021/12/10 04:54:27;;;;;;;;;;;;;;;18.38;32.32;93417.56;5054832;28;20304;-55
2021/12/10 04:56:57;;;;;;;;;;;;;;;18.24;32.81;93413.97;5055529;28;19920;-56
2021/12/10 04:59:25;;;;;;;;;;;;;;;18.36;32.39;93419.81;5043876;28;20243;-55
2021/12/10 05:01:56;;;;;;;;;;;;;;;18.43;32.51;93419.91;5055595;28;19917;-56
2021/12/10 05:04:24;;;;;;;;;;;;;;;18.58;32.49;93414.81;5054667;28;19913;-57
2021/12/10 05:06:51;;;;;;;;;;;;;;;18.33;32.89;93423.16;5054972;28;19943;-55
2021/12/10 05:09:18;;;;;;;;;;;;;;;18.25;32.48;93423.44;5053915;28;19912;-55
2021/12/10 05:11:45;;;;;;;;;;;;;;;18.11;33.05;93419.44;5055318;28;19928;-54
2021/12/10 05:14:12;;;;;;;;;;;;;;;18.44;31.00;93429.34;5054547;28;19920;-56
2021/12/10 05:16:43;;;;;;;;;;;;;;;18.68;31.34;93430.06;5055130;28;19919;-57
2021/12/10 05:19:10;;;;;;;;;;;;;;;18.13;31.54;93421.72;5054747;28;19944;-55
2021/12/10 05:21:38;;;;;;;;;;;;;;;17.77;32.82;93415.91;5054666;28;19916;-57
2021/12/10 05:24:05;;;;;;;;;;;;;;;17.29;33.27;93416.56;5051218;28;19913;-56
2021/12/10 05:26:33;;;;;;;;;;;;;;;17.22;33.16;93415.31;5035208;28;19924;-56
2021/12/10 05:29:00;;;;;;;;;;;;;;;17.60;32.65;93421.63;5044385;28;19913;-59
2021/12/10 05:31:27;;;;;;;;;;;;;;;17.45;32.73;93430.44;5055676;28;19919;-54
2021/12/10 05:33:53;;;;;;;;;;;;;;;18.91;31.07;93417.50;5055047;28;19913;-50
2021/12/10 05:36:20;;;;;;;;;;;;;;;17.77;31.42;93428.38;5037429;28;19920;-47
2021/12/10 05:38:47;;;;;;;;;;;;;;;17.75;32.01;93407.56;5055186;28;19920;-53
2021/12/10 05:41:14;;;;;;;;;;;;;;;17.41;32.19;93405.81;5054261;28;19924;-56
2021/12/10 05:43:41;;;;;;;;;;;;;;;16.78;34.50;93396.41;5052796;28;19916;-64
2021/12/10 05:46:09;;;;;;;;;;;;;;;16.94;33.15;93412.94;5042489;28;19913;-50
2021/12/10 05:48:36;;;;;;;;;;;;;;;16.96;33.57;93394.09;5054766;28;20233;-66
2021/12/10 05:51:02;;;;;;;;;;;;;;;16.73;34.73;93401.19;5052407;28;20303;-52
2021/12/10 05:53:30;;;;;;;;;;;;;;;16.60;34.71;93396.00;5052796;28;19921;-43
2021/12/10 05:55:56;;;;;;;;;;;;;;;16.76;34.20;93405.78;5054876;28;19928;-51
2021/12/10 05:58:23;;;;;;;;;;;;;;;17.33;32.89;93412.09;5054494;28;19913;-56
2021/12/10 06:00:51;;;;;;;;;;;;;;;18.20;31.91;93411.25;5054613;28;19920;-53
2021/12/10 06:03:18;;;;;;;;;;;;;;;17.22;33.26;93396.09;5039534;28;19920;-51
2021/12/10 06:05:46;;;;;;;;;;;;;;;16.96;33.36;93404.66;5052950;28;19912;-55
2021/12/10 06:08:13;;;;;;;;;;;;;;;20.43;27.87;93401.47;5058084;28;19919;-52
2021/12/10 06:10:40;;;;;;;;;;;;;;;16.95;32.98;93382.78;5049315;28;19920;-52
2021/12/10 06:13:07;;;;;;;;;;;;;;;18.27;31.10;93407.97;5056871;28;19917;-52
2021/12/10 06:15:35;;;;;;;;;;;;;;;18.41;30.48;93410.78;5058701;28;19916;-51
2021/12/10 06:18:02;;;;;;;;;;;;;;;17.71;32.02;93411.28;5058880;28;19912;-52
2021/12/10 06:20:30;;;;;;;;;;;;;;;17.37;32.98;93412.94;5058055;28;19920;-53
2021/12/10 06:22:59;;;;;;;;;;;;;;;16.75;34.16;93412.91;5041393;28;19924;-51
2021/12/10 06:25:27;;;;;;;;;;;;;;;17.44;32.43;93431.56;5039030;28;20231;-53
2021/12/10 06:27:54;;;;;;;;;;;;;;;17.10;33.25;93410.19;5039099;28;19928;-53
2021/12/10 06:30:23;;;;;;;;;;;;;;;19.00;30.32;93423.31;5047322;28;19935;-52
2021/12/10 06:32:52;;;;;;;;;;;;;;;17.49;32.72;93389.00;5053263;28;19913;-55
2021/12/10 06:35:19;;;;;;;;;;;;;;;17.10;33.04;93410.19;5051558;28;20299;-51
2021/12/10 06:37:46;;;;;;;;;;;;;;;18.41;30.73;93411.56;5038736;28;20323;-53
2021/12/10 06:40:13;;;;;;;;;;;;;;;17.36;33.19;93406.13;5046071;28;19919;-51
2021/12/10 06:42:40;;;;;;;;;;;;;;;17.21;33.27;93403.25;5056803;28;20251;-51
2021/12/10 06:45:10;;;;;;;;;;;;;;;16.56;34.42;93384.63;5038540;28;19920;-52
2021/12/10 06:47:37;;;;;;;;;;;;;;;17.64;32.09;93396.03;5038502;28;20316;-51
2021/12/10 06:50:04;;;;;;;;;;;;;;;19.69;29.46;93399.00;5045896;28;20303;-52
2021/12/10 06:52:31;;;;;;;;;;;;;;;18.80;30.27;93398.09;5049744;28;19913;-53
2021/12/10 06:54:58;;;;;;;;;;;;;;;19.71;29.29;93394.84;5038203;28;20259;-61
2021/12/10 06:57:25;;;;;;;;;;;;;;;18.12;32.54;93388.47;5038204;28;19920;-52
2021/12/10 06:59:53;;;;;;;;;;;;;;;18.33;31.66;93402.00;5038266;28;19913;-53
2021/12/10 07:02:20;;;;;;;;;;;;;;;18.02;32.13;93399.66;5054892;28;20266;-53
2021/12/10 07:04:46;;;;;;;;;;;;;;;17.31;33.39;93390.56;5057996;28;19912;-51
2021/12/10 07:07:13;;;;;;;;;;;;;;;18.44;31.76;93416.13;5058252;28;19913;-52
2021/12/10 07:09:41;;;;;;;;;;;;;;;17.51;33.00;93397.34;5058031;28;19916;-53
2021/12/10 07:12:07;;;;;;;;;;;;;;;17.74;32.58;93400.75;5057256;28;19912;-53
2021/12/10 07:14:35;;;;;;;;;;;;;;;18.01;31.79;93414.00;5057322;28;20243;-54
2021/12/10 07:17:02;;;;;;;;;;;;;;;18.48;31.16;93416.19;5057731;28;19914;-54
2021/12/10 07:19:29;;;;;;;;;;;;;;;17.21;33.18;93413.81;5057577;28;19912;-53
2021/12/10 07:21:56;;;;;;;;;;;;;;;17.91;31.97;93425.16;5053437;28;19924;-52
2021/12/10 07:24:24;;;;;;;;;;;;;;;18.34;31.69;93422.03;5050073;28;19943;-53
2021/12/10 07:26:50;;;;;;;;;;;;;;;17.46;33.18;93405.56;5037440;28;20235;-53
2021/12/10 07:29:17;;;;;;;;;;;;;;;17.88;32.35;93414.19;5036335;28;20239;-53
2021/12/10 07:31:44;;;;;;;;;;;;;;;17.30;33.93;93408.28;5048472;28;19916;-53
2021/12/10 07:34:11;;;;;;;;;;;;;;;17.74;32.67;93395.47;5039033;28;19912;-52
2021/12/10 07:36:38;;;;;;;;;;;;;;;18.86;30.80;93403.81;5057267;28;19927;-53
2021/12/10 07:39:06;;;;;;;;;;;;;;;17.93;32.81;93397.25;5057213;28;20361;-53
2021/12/10 07:41:33;;;;;;;;;;;;;;;17.71;33.64;93406.75;5056473;28;19917;-53
2021/12/10 07:44:00;;;;;;;;;;;;;;;18.35;32.11;93409.59;5056549;28;19928;-52
2021/12/10 07:46:28;;;;;;;;;;;;;;;18.00;33.03;93404.56;5056374;28;19921;-52
2021/12/10 07:48:55;;;;;;;;;;;;;;;19.14;32.08;93403.38;5056963;28;19975;-53
2021/12/10 07:51:24;;;;;;;;;;;;;;;18.15;32.77;93393.03;5052601;28;19917;-53
2021/12/10 07:53:57;;;;;;;;;;;;;;;18.38;32.88;93401.69;5056937;28;20226;-53
2021/12/10 07:56:27;;;;;;;;;;;;;;;17.46;34.24;93390.47;5048130;28;19920;-52
2021/12/10 07:58:54;;;;;;;;;;;;;;;18.62;32.27;93402.38;5036744;28;19913;-52
2021/12/10 08:01:25;;;;;;;;;;;;;;;17.83;33.17;93397.88;5044342;28;19917;-54
2021/12/10 08:03:52;;;;;;;;;;;;;;;17.51;33.84;93397.34;5056626;28;20238;-52
2021/12/10 08:06:20;;;;;;;;;;;;;;;17.46;33.91;93397.63;5056116;28;19913;-53
2021/12/10 08:08:47;;;;;;;;;;;;;;;18.22;33.19;93401.09;5055815;28;19923;-53
2021/12/10 08:11:14;;;;;;;;;;;;;;;18.30;33.34;93407.25;5056467;28;19920;-53
2021/12/10 08:13:41;;;;;;;;;;;;;;;18.33;33.15;93404.66;5056629;28;19921;-53
2021/12/10 08:16:08;;;;;;;;;;;;;;;18.40;33.25;93410.03;5055919;28;20247;-52
2021/12/10 08:18:35;;;;;;;;;;;;;;;18.39;33.33;93411.16;5056083;28;19919;-52
2021/12/10 08:21:02;;;;;;;;;;;;;;;18.52;32.76;93410.94;5055072;28;19932;-53
2021/12/10 08:23:29;;;;;;;;;;;;;;;18.47;32.47;93415.41;5056602;28;19928;-51
2021/12/10 08:25:56;;;;;;;;;;;;;;;17.74;33.48;93426.44;5056088;28;19924;-52
2021/12/10 08:28:25;;;;;;;;;;;;;;;18.03;32.99;93423.13;5056387;28;19920;-53
2021/12/10 08:30:52;;;;;;;;;;;;;;;17.99;32.82;93417.00;5055116;28;19924;-52
2021/12/10 08:33:19;;;;;;;;;;;;;;;17.74;33.52;93421.91;5056345;28;19920;-53
2021/12/10 08:35:48;;;;;;;;;;;;;;;18.47;32.53;93415.41;5054830;28;19924;-53
2021/12/10 08:38:15;;;;;;;;;;;;;;;18.10;33.45;93419.81;5056260;28;19924;-53
2021/12/10 08:40:44;;;;;;;;;;;;;;;17.67;33.59;93397.97;5056162;28;19912;-52
2021/12/10 08:43:11;;;;;;;;;;;;;;;18.09;33.08;93413.00;5055568;28;19924;-52
2021/12/10 08:45:38;;;;;;;;;;;;;;;19.01;32.27;93389.63;5054110;28;19920;-53
2021/12/10 08:48:05;;;;;;;;;;;;;;;18.30;33.20;93397.44;5036166;28;20625;-53
2021/12/10 08:50:33;;;;;;;;;;;;;;;18.05;33.38;93393.66;5042261;28;19947;-51
2021/12/10 08:53:02;;;;;;;;;;;;;;;17.66;33.99;93398.31;5053052;28;20291;-54
2021/12/10 08:55:29;;;;;;;;;;;;;;;18.07;33.44;93409.94;5054946;28;19917;-54
2021/12/10 08:57:56;;;;;;;;;;;;;;;17.75;33.73;93412.88;5055381;28;19913;-52
2021/12/10 09:00:23;;;;;;;;;;;;;;;17.57;33.73;93409.13;5055489;28;19913;-53
2021/12/10 09:02:51;;;;;;;;;;;;;;;17.53;33.94;93411.72;5053569;28;19913;-51
2021/12/10 09:05:18;;;;;;;;;;;;;;;17.21;33.98;93416.44;5055037;28;19921;-52
2021/12/10 09:07:45;;;;;;;;;;;;;;;17.32;34.02;93400.00;5055189;28;20255;-53
2021/12/10 09:10:15;;;;;;;;;;;;;;;17.27;33.87;93417.69;5055178;28;20420;-53
2021/12/10 09:12:42;;;;;;;;;;;;;;;17.14;34.26;93408.38;5052833;28;19917;-51
2021/12/10 09:15:10;;;;;;;;;;;;;;;16.55;35.32;93401.56;5054600;28;19917;-51
2021/12/10 09:17:38;;;;;;;;;;;;;;;16.84;34.48;93391.59;5054827;28;19917;-53
2021/12/10 09:20:08;;;;;;;;;;;;;;;17.31;33.69;93385.28;5053835;28;19921;-52
2021/12/10 09:22:35;;;;;;;;;;;;;;;16.50;34.86;93383.38;5054861;28;19928;-53
2021/12/10 09:25:02;;;;;;;;;;;;;;;16.69;34.89;93392.44;5050525;28;19943;-53
2021/12/10 09:27:29;;;;;;;;;;;;;;;17.09;34.46;93386.78;5055134;28;19944;-53
2021/12/10 09:29:56;;;;;;;;;;;;;;;17.23;34.05;93418.75;5043698;28;19913;-52
2021/12/10 09:32:24;;;;;;;;;;;;;;;17.81;33.09;93410.69;5035758;28;20350;-51
2021/12/10 09:34:52;;;;;;;;;;;;;;;17.75;33.22;93391.72;5038233;28;19913;-52
2021/12/10 09:37:19;;;;;;;;;;;;;;;17.79;32.77;93381.19;5054764;28;19916;-53
2021/12/10 09:39:48;;;;;;;;;;;;;;;17.58;33.15;93371.00;5055169;28;19920;-55
2021/12/10 09:42:16;;;;;;;;;;;;;;;17.42;33.71;93351.88;5054793;28;19924;-52
2021/12/10 09:44:42;;;;;;;;;;;;;;;17.36;33.98;93345.34;5054731;28;19927;-52
2021/12/10 09:47:14;;;;;;;;;;;;;;;18.18;32.82;93347.38;5055124;28;20215;-54
2021/12/10 09:49:48;;;;;;;;;;;;;;;18.21;33.10;93346.66;5041281;28;19921;-53
2021/12/10 09:52:16;;;;;;;;;;;;;;;17.82;33.76;93344.22;5034147;28;19920;-53
2021/12/10 09:54:43;;;;;;;;;;;;;;;18.33;32.99;93357.03;5036383;28;19921;-53
2021/12/10 09:57:11;;;;;;;;;;;;;;;18.35;33.18;93349.50;5055042;28;19920;-53
2021/12/10 09:59:39;;;;;;;;;;;;;;;17.99;33.72;93350.91;5055457;28;19983;-53
2021/12/10 10:02:06;;;;;;;;;;;;;;;19.19;32.02;93347.41;5049477;28;20300;-52
2021/12/10 10:04:35;;;;;;;;;;;;;;;19.02;32.06;93344.25;5035485;28;19913;-54
2021/12/10 10:07:08;;;;;;;;;;;;;;;20.30;30.85;93334.66;5050552;28;19913;-54
2021/12/10 10:09:35;;;;;;;;;;;;;;;20.27;31.13;93316.78;5036036;28;20236;-53
2021/12/10 10:12:07;;;;;;;;;;;;;;;20.79;29.43;93314.75;5045168;28;19913;-57
2021/12/10 10:14:34;;;;;;;;;;;;;;;22.33;27.45;93312.91;5034650;28;19920;-52
2021/12/10 10:17:01;;;;;;;;;;;;;;;21.65;28.56;93317.56;5054605;28;20303;-52
2021/12/10 10:19:28;;;;;;;;;;;;;;;21.28;29.30;93309.94;5055131;28;19913;-57
2021/12/10 10:21:56;;;;;;;;;;;;;;;22.98;26.13;93317.63;5052852;28;19917;-54
2021/12/10 10:24:24;;;;;;;;;;;;;;;22.48;27.42;93309.06;5035130;28;19920;-51
2021/12/10 10:26:54;;;;;;;;;;;;;;;22.84;26.98;93303.59;5048411;28;19913;-52
2021/12/10 10:29:22;;;;;;;;;;;;;;;22.73;26.56;93304.38;5034524;28;19913;-53
2021/12/10 10:31:51;;;;;;;;;;;;;;;23.61;25.98;93296.25;5035197;28;19920;-55
2021/12/10 10:34:18;;;;;;;;;;;;;;;23.38;25.45;93294.88;5034974;28;20228;-53
2021/12/10 10:36:45;;;;;;;;;;;;;;;23.22;25.55;93289.28;5051364;28;19923;-52
2021/12/10 10:39:14;;;;;;;;;;;;;;;22.50;26.82;93274.81;5043714;28;19917;-52
2021/12/10 10:41:42;;;;;;;;;;;;;;;21.95;27.88;93278.00;5034166;28;19940;-52
2021/12/10 10:44:09;;;;;;;;;;;;;;;23.28;25.77;93277.06;5042927;28;19917;-54
2021/12/10 10:46:36;;;;;;;;;;;;;;;22.27;27.00;93287.81;5054373;28;19921;-53
2021/12/10 10:49:04;;;;;;;;;;;;;;;21.38;28.48;93283.38;5053999;28;19955;-53
2021/12/10 10:51:38;;;;;;;;;;;;;;;20.21;29.32;93288.31;5045517;28;19924;-53
2021/12/10 10:54:06;;;;;;;;;;;;;;;19.65;30.83;93279.69;5037171;28;20312;-52
2021/12/10 10:56:34;;;;;;;;;;;;;;;20.03;30.07;93288.22;5043425;28;19913;-53
2021/12/10 10:59:03;;;;;;;;;;;;;;;20.62;29.23;93275.63;5052984;28;19920;-53
2021/12/10 11:01:39;;;;;;;;;;;;;;;20.36;29.73;93276.66;5049650;28;19916;-51
2021/12/10 11:04:13;;;;;;;;;;;;;;;19.13;31.84;93285.31;5057979;28;19921;-56
2021/12/10 11:06:41;;;;;;;;;;;;;;;19.89;30.60;93266.94;5040155;28;19913;-53
2021/12/10 11:09:15;;;;;;;;;;;;;;;20.38;30.02;93271.72;5053118;28;19921;-63
2021/12/10 11:11:45;;;;;;;;;;;;;;;21.65;28.02;93281.09;5038604;28;20000;-52
2021/12/10 11:14:14;;;;;;;;;;;;;;;20.54;29.61;93269.53;5036542;28;19924;-52
2021/12/10 11:16:42;;;;;;;;;;;;;;;20.76;29.31;93286.28;5043360;28;19916;-52
2021/12/10 11:19:14;;;;;;;;;;;;;;;20.52;29.49;93287.72;5057845;28;20223;-54
2021/12/10 11:21:55;;;;;;;;;;;;;;;20.90;29.26;93302.25;5057099;28;19921;-54
2021/12/10 11:24:23;;;;;;;;;;;;;;;21.79;27.77;93285.63;5045349;28;19924;-53
2021/12/10 11:26:52;;;;;;;;;;;;;;;22.35;27.32;93297.28;5044569;28;19916;-51
2021/12/10 11:29:29;;;;;;;;;;;;;;;23.57;25.21;93284.88;5044845;28;19920;-52
2021/12/10 11:32:00;;;;;;;;;;;;;;;20.97;28.93;93263.56;5042078;28;19917;-53
2021/12/10 11:34:40;;;;;;;;;;;;;;;20.43;29.84;93252.06;5037376;28;19917;-57
2021/12/10 11:37:09;;;;;;;;;;;;;;;22.58;26.88;93262.97;5053595;28;19917;-55
2021/12/10 11:39:52;;;;;;;;;;;;;;;21.35;28.53;93252.25;5056280;28;19913;-64
2021/12/10 11:42:34;;;;;;;;;;;;;;;20.63;29.94;93245.28;5056895;28;19916;-57
2021/12/10 11:45:27;;;;;;;;;;;;;;;21.00;29.50;93260.16;5037267;28;19933;-51
2021/12/10 11:47:54;;;;;;;;;;;;;;;23.43;25.57;93261.72;5040633;28;19928;-61
2021/12/10 11:50:22;;;;;;;;;;;;;;;20.98;29.35;93231.31;5041616;28;20230;-61
2021/12/10 11:53:05;;;;;;;;;;;;;;;20.81;29.42;93245.31;5038932;28;19912;-67
2021/12/10 11:55:33;;;;;;;;;;;;;;;21.15;28.96;93259.03;5037303;28;20292;-68
2021/12/10 11:58:00;;;;;;;;;;;;;;;20.22;30.62;93258.78;5061309;28;19917;-52
2021/12/10 12:00:32;;;;;;;;;;;;;;;20.90;29.34;93248.38;5075729;28;20226;-44
2021/12/10 12:03:04;;;;;;;;;;;;;;;20.02;30.68;93233.66;5056847;28;19912;-57
2021/12/10 12:05:35;;;;;;;;;;;;;;;20.50;30.45;93231.59;5048701;28;19924;-49
2021/12/10 12:08:04;;;;;;;;;;;;;;;20.46;30.09;93233.47;5052083;28;19919;-51
2021/12/10 12:10:37;;;;;;;;;;;;;;;20.56;30.02;93239.97;5056716;28;19913;-68
2021/12/10 12:13:11;;;;;;;;;;;;;;;22.82;26.69;93242.72;5041685;28;19917;-49
2021/12/10 12:15:45;;;;;;;;;;;;;;;21.33;28.55;93227.91;5049521;28;19921;-44
2021/12/10 12:18:47;;;;;;;;;;;;;;;23.89;25.17;93215.19;5037578;28;19913;-43
2021/12/10 12:26:38;;;;;;;;;;;;;;;22.19;27.28;93209.16;5056140;28;19923;-70
2021/12/10 12:29:05;;;;;;;;;;;;;;;21.30;28.70;93207.41;5040306;28;19920;-58
2021/12/10 12:31:36;;;;;;;;;;;;;;;21.34;28.92;93213.50;5044894;28;19939;-50
2021/12/10 12:34:05;;;;;;;;;;;;;;;21.08;29.28;93219.16;5055837;28;20223;-48
2021/12/10 12:36:35;;;;;;;;;;;;;;;21.67;28.97;93208.91;5055659;28;19913;-66
2021/12/10 12:39:04;;;;;;;;;;;;;;;20.79;29.61;93211.16;5055989;28;19916;-57
2021/12/10 12:41:32;;;;;;;;;;;;;;;21.43;28.51;93211.22;5055722;28;19919;-53
2021/12/10 12:44:10;;;;;;;;;;;;;;;21.25;28.73;93194.50;5055806;28;19925;-51
2021/12/10 12:47:07;;;;;;;;;;;;;;;21.42;28.34;93193.75;5055031;28;19920;-69
2021/12/10 12:49:38;;;;;;;;;;;;;;;21.45;28.32;93203.63;5055520;28;19913;-56
2021/12/10 12:52:09;;;;;;;;;;;;;;;20.83;29.05;93193.34;5053842;28;20295;-50
2021/12/10 12:54:37;;;;;;;;;;;;;;;20.54;29.55;93183.81;5055724;28;19913;-54
2021/12/10 12:57:04;;;;;;;;;;;;;;;21.34;28.57;93181.63;5055456;28;19923;-46
2021/12/10 12:59:31;;;;;;;;;;;;;;;21.45;27.80;93182.34;5055351;28;19920;-52
2021/12/10 13:02:00;;;;;;;;;;;;;;;20.89;28.88;93181.22;5054740;28;20258;-46
2021/12/10 13:04:29;;;;;;;;;;;;;;;20.64;29.32;93183.09;5055406;28;19924;-57
2021/12/10 13:07:00;;;;;;;;;;;;;;;21.05;28.56;93182.72;5053547;28;19920;-69
2021/12/10 13:09:39;;;;;;;;;;;;;;;20.50;29.43;93183.81;5055642;28;20196;-52
2021/12/10 13:12:11;;;;;;;;;;;;;;;21.24;28.18;93182.38;5052498;28;19913;-54